Time;durP1;ratioP1;P1;durP2;ratioP2;P2;SDS_P1;SDS_P2;PMS_P1;PMS_P2;Temp;Humidity;BMP_temperature;BMP_pressure;BME280_temperature;BME280_humidity;BME280_pressure;Samples;Min_cycle;Max_cycle;Signal;HPM_P1;HPM_P2
2022/01/01 00:02:21;;;;;;;119.55;53.50;;;;;;;;;;5015479;28;20100;-65
2022/01/01 00:04:48;;;;;;;116.07;52.38;;;;;;;;;;5015259;28;20065;-65
2022/01/01 00:07:15;;;;;;;107.78;53.22;;;;;;;;;;5014771;28;20351;-65
2022/01/01 00:09:43;;;;;;;132.70;57.53;;;;;;;;;;5015276;28;20092;-65
2022/01/01 00:12:09;;;;;;;122.50;57.92;;;;;;;;;;5015074;28;20046;-65
2022/01/01 00:14:35;;;;;;;;;;;;;;;;;;4997414;28;20049;-65
2022/01/01 00:17:05;;;;;;;116.68;53.65;;;;;;;;;;5014858;28;19921;-64
2022/01/01 00:19:31;;;;;;;112.45;53.13;;;;;;;;;;5015706;28;20045;-64
2022/01/01 00:22:01;;;;;;;116.20;53.03;;;;;;;;;;5014912;28;20081;-64
2022/01/01 00:24:27;;;;;;;120.68;50.15;;;;;;;;;;4997243;28;20410;-67
2022/01/01 00:26:53;;;;;;;118.78;48.75;;;;;;;;;;5014439;28;20125;-65
2022/01/01 00:29:19;;;;;;;101.35;44.38;;;;;;;;;;4996936;28;20049;-65
2022/01/01 00:31:45;;;;;;;;;;;;;;;;;;4996642;28;20081;-65
2022/01/01 00:34:12;;;;;;;105.60;47.90;;;;;;;;;;5014595;28;19975;-64
2022/01/01 00:36:38;;;;;;;101.18;47.30;;;;;;;;;;4997594;28;20438;-64
2022/01/01 00:39:04;;;;;;;115.10;46.17;;;;;;;;;;5014283;28;20050;-67
2022/01/01 00:41:30;;;;;;;109.88;46.22;;;;;;;;;;5015289;28;20046;-67
2022/01/01 00:43:56;;;;;;;117.40;44.80;;;;;;;;;;5013424;28;20050;-65
2022/01/01 00:46:23;;;;;;;103.78;42.65;;;;;;;;;;5013752;28;20132;-64
2022/01/01 00:48:53;;;;;;;104.47;41.65;;;;;;;;;;5014698;28;20054;-66
2022/01/01 00:51:19;;;;;;;97.88;38.45;;;;;;;;;;5012166;28;20107;-64
2022/01/01 00:53:45;;;;;;;87.10;33.40;;;;;;;;;;4996151;28;20057;-65
2022/01/01 00:56:11;;;;;;;73.88;31.92;;;;;;;;;;5013339;28;20204;-65
2022/01/01 00:58:38;;;;;;;94.20;35.38;;;;;;;;;;4995718;28;20045;-65
2022/01/01 01:01:05;;;;;;;88.55;34.88;;;;;;;;;;5012697;28;20038;-65
2022/01/01 01:03:31;;;;;;;89.40;35.75;;;;;;;;;;4996592;28;20177;-64
2022/01/01 01:05:59;;;;;;;83.75;35.15;;;;;;;;;;5013563;28;20046;-67
2022/01/01 01:08:25;;;;;;;86.20;34.70;;;;;;;;;;5013474;28;20489;-64
2022/01/01 01:10:52;;;;;;;83.50;33.95;;;;;;;;;;5014020;28;20042;-64
2022/01/01 01:13:19;;;;;;;91.22;34.45;;;;;;;;;;5013612;28;20045;-64
2022/01/01 01:15:45;;;;;;;90.30;32.80;;;;;;;;;;5013069;28;20049;-63
2022/01/01 01:18:12;;;;;;;80.40;31.67;;;;;;;;;;4996800;28;20050;-63
2022/01/01 01:20:38;;;;;;;77.43;30.52;;;;;;;;;;4996158;28;20461;-64
2022/01/01 01:23:04;;;;;;;90.88;30.83;;;;;;;;;;5013650;28;20448;-64
2022/01/01 01:25:38;;;;;;;86.72;32.60;;;;;;;;;;5014083;28;20050;-64
2022/01/01 01:28:08;;;;;;;147.98;86.53;;;;;;;;;;5013828;28;20105;-64
2022/01/01 01:30:37;;;;;;;86.78;33.53;;;;;;;;;;5013840;28;20438;-64
2022/01/01 01:33:04;;;;;;;81.68;32.13;;;;;;;;;;5013604;28;20041;-63
2022/01/01 01:35:30;;;;;;;84.85;31.40;;;;;;;;;;4996453;28;20390;-63
2022/01/01 01:37:56;;;;;;;83.45;32.30;;;;;;;;;;5013741;28;20140;-64
2022/01/01 01:40:22;;;;;;;71.97;27.95;;;;;;;;;;5013917;28;20090;-64
2022/01/01 01:42:50;;;;;;;79.38;28.20;;;;;;;;;;5013924;28;20521;-63
2022/01/01 01:45:18;;;;;;;78.55;26.63;;;;;;;;;;4996043;28;20054;-63
2022/01/01 01:47:44;;;;;;;91.72;28.60;;;;;;;;;;5012676;28;20050;-64
2022/01/01 01:50:12;;;;;;;72.47;27.85;;;;;;;;;;5013634;28;20054;-66
2022/01/01 01:52:39;;;;;;;87.63;31.00;;;;;;;;;;5013771;28;20125;-65
2022/01/01 01:55:07;;;;;;;88.00;31.60;;;;;;;;;;5013416;28;20062;-65
2022/01/01 01:57:39;;;;;;;88.00;31.52;;;;;;;;;;5013328;28;20579;-65
2022/01/01 02:00:09;;;;;;;86.25;31.63;;;;;;;;;;5012942;28;20503;-66
2022/01/01 02:02:37;;;;;;;99.43;34.00;;;;;;;;;;5012775;28;20060;-66
2022/01/01 02:05:03;;;;;;;105.28;35.17;;;;;;;;;;5012588;28;20050;-66
2022/01/01 02:07:29;;;;;;;100.38;36.10;;;;;;;;;;4979563;28;20128;-65
2022/01/01 02:09:55;;;;;;;;;;;;;;;;;;5013238;28;20050;-65
2022/01/01 02:12:23;;;;;;;116.82;39.20;;;;;;;;;;5012133;28;19968;-65
2022/01/01 02:17:24;;;;;;;139.52;45.72;;;;;;;;;;4996120;28;20466;-65
2022/01/01 02:19:50;;;;;;;;;;;;;;;;;;5012245;28;20049;-64
2022/01/01 02:22:16;;;;;;;134.48;48.53;;;;;;;;;;5011630;28;19968;-64
2022/01/01 02:24:42;;;;;;;150.60;50.85;;;;;;;;;;5012729;28;20042;-63
2022/01/01 02:27:08;;;;;;;161.00;53.30;;;;;;;;;;5011217;28;20576;-64
2022/01/01 02:29:35;;;;;;;155.23;56.80;;;;;;;;;;5015381;28;20132;-66
2022/01/01 02:32:01;;;;;;;;;;;;;;;;;;5016045;28;20040;-66
2022/01/01 02:34:27;;;;;;;158.35;59.38;;;;;;;;;;5017204;28;19956;-63
2022/01/01 02:36:53;;;;;;;156.40;59.45;;;;;;;;;;5016596;28;20054;-63
2022/01/01 02:39:20;;;;;;;164.82;54.97;;;;;;;;;;5017074;28;20083;-63
2022/01/01 02:41:48;;;;;;;150.15;57.88;;;;;;;;;;5014779;28;20371;-69
2022/01/01 02:44:15;;;;;;;146.70;55.30;;;;;;;;;;5014217;28;20065;-67
2022/01/01 02:46:41;;;;;;;154.55;55.05;;;;;;;;;;5015714;28;20433;-74
2022/01/01 02:49:07;;;;;;;147.38;54.20;;;;;;;;;;4997693;28;20486;-64
2022/01/01 02:51:34;;;;;;;144.90;55.35;;;;;;;;;;5014533;28;20105;-67
2022/01/01 02:54:00;;;;;;;137.27;52.65;;;;;;;;;;5015799;28;20561;-66
2022/01/01 02:56:26;;;;;;;142.82;49.30;;;;;;;;;;4994495;28;20164;-64
2022/01/01 02:58:52;;;;;;;138.90;48.65;;;;;;;;;;4996520;28;20050;-65
2022/01/01 03:01:18;;;;;;;;;;;;;;;;;;4997197;28;20042;-66
2022/01/01 03:03:46;;;;;;;123.97;44.97;;;;;;;;;;4996946;28;20280;-67
2022/01/01 03:06:19;;;;;;;119.75;43.50;;;;;;;;;;4995906;28;20173;-69
2022/01/01 03:08:46;;;;;;;129.55;42.53;;;;;;;;;;4995339;28;20081;-65
2022/01/01 03:11:12;;;;;;;125.68;43.65;;;;;;;;;;4996458;28;20053;-66
2022/01/01 03:13:38;;;;;;;123.20;42.70;;;;;;;;;;4977182;28;20185;-65
2022/01/01 03:16:04;;;;;;;121.47;43.42;;;;;;;;;;4996277;28;20498;-64
2022/01/01 03:18:30;;;;;;;129.63;43.88;;;;;;;;;;4995350;28;20061;-65
2022/01/01 03:20:56;;;;;;;110.15;43.60;;;;;;;;;;4994780;28;20434;-65
2022/01/01 03:23:22;;;;;;;134.07;45.35;;;;;;;;;;4995462;28;20046;-63
2022/01/01 03:25:48;;;;;;;135.68;47.33;;;;;;;;;;4996010;28;20137;-64
2022/01/01 03:28:15;;;;;;;126.47;46.80;;;;;;;;;;4995755;28;20050;-67
2022/01/01 03:30:41;;;;;;;123.72;46.38;;;;;;;;;;4995426;28;20046;-65
2022/01/01 03:33:07;;;;;;;142.15;50.28;;;;;;;;;;4996139;28;20085;-65
2022/01/01 03:35:33;;;;;;;133.18;46.83;;;;;;;;;;4995287;28;20046;-66
2022/01/01 03:38:00;;;;;;;133.60;45.97;;;;;;;;;;4994887;28;20053;-65
2022/01/01 03:40:26;;;;;;;118.05;47.03;;;;;;;;;;4993556;28;20050;-65
2022/01/01 03:42:52;;;;;;;131.55;46.30;;;;;;;;;;4994411;28;20054;-65
2022/01/01 03:45:18;;;;;;;121.55;44.67;;;;;;;;;;4996239;28;20050;-64
2022/01/01 03:47:45;;;;;;;118.72;45.05;;;;;;;;;;4995658;28;20108;-64
2022/01/01 03:50:11;;;;;;;119.88;42.40;;;;;;;;;;4996216;28;20387;-68
2022/01/01 03:52:41;;;;;;;118.70;43.00;;;;;;;;;;4995640;28;20491;-63
2022/01/01 03:55:08;;;;;;;109.25;39.65;;;;;;;;;;4997634;28;20525;-65
2022/01/01 03:57:34;;;;;;;;;;;;;;;;;;5014976;28;20236;-65
2022/01/01 04:00:00;;;;;;;100.50;39.35;;;;;;;;;;5014722;28;19964;-64
2022/01/01 04:02:26;;;;;;;127.05;40.80;;;;;;;;;;4980995;28;20045;-64
2022/01/01 04:04:52;;;;;;;131.90;39.95;;;;;;;;;;4997850;28;20049;-64
2022/01/01 04:07:18;;;;;;;97.65;33.30;;;;;;;;;;5014868;28;20120;-71
2022/01/01 04:09:45;;;;;;;105.97;37.47;;;;;;;;;;5015421;28;20041;-64
2022/01/01 04:12:11;;;;;;;;;;;;;;;;;;4998017;28;20078;-64
2022/01/01 04:14:37;;;;;;;108.55;38.17;;;;;;;;;;5015176;28;19922;-64
2022/01/01 04:17:03;;;;;;;114.53;36.97;;;;;;;;;;4981695;28;20046;-65
2022/01/01 04:19:39;;;;;;;105.60;35.03;;;;;;;;;;5013558;28;20141;-69
2022/01/01 04:22:05;;;;;;;126.05;36.83;;;;;;;;;;5014313;28;20121;-67
2022/01/01 04:24:31;;;;;;;;;;;;;;;;;;5015395;28;20050;-63
2022/01/01 04:26:57;;;;;;;114.60;36.95;;;;;;;;;;5015351;28;19966;-63
2022/01/01 04:29:24;;;;;;;110.95;37.85;;;;;;;;;;5014649;28;20549;-63
2022/01/01 04:31:49;;;;;;;;;;;;;;;;;;5015319;28;20103;-63
2022/01/01 04:34:16;;;;;;;107.90;38.63;;;;;;;;;;5014510;28;20020;-65
2022/01/01 04:36:53;;;;;;;118.30;38.97;;;;;;;;;;5014730;28;20124;-64
2022/01/01 04:39:19;;;;;;;101.68;37.97;;;;;;;;;;5014845;28;20054;-65
2022/01/01 04:41:45;;;;;;;112.03;40.20;;;;;;;;;;4997048;28;20466;-65
2022/01/01 04:44:11;;;;;;;112.18;40.00;;;;;;;;;;5014492;28;20053;-64
2022/01/01 04:46:37;;;;;;;111.43;42.35;;;;;;;;;;5014894;28;20045;-66
2022/01/01 04:49:03;;;;;;;131.00;43.70;;;;;;;;;;5014550;28;20049;-65
2022/01/01 04:51:29;;;;;;;125.05;42.42;;;;;;;;;;5013802;28;20046;-65
2022/01/01 04:53:59;;;;;;;121.97;42.83;;;;;;;;;;5014778;28;20053;-66
2022/01/01 04:56:28;;;;;;;114.10;43.67;;;;;;;;;;5014682;28;20057;-65
2022/01/01 04:58:54;;;;;;;109.78;41.92;;;;;;;;;;5014594;28;20053;-65
2022/01/01 05:01:20;;;;;;;109.93;41.92;;;;;;;;;;5014531;28;20481;-64
2022/01/01 05:03:46;;;;;;;125.03;42.00;;;;;;;;;;5014050;28;20528;-66
2022/01/01 05:06:12;;;;;;;115.32;42.08;;;;;;;;;;4996762;28;20099;-64
2022/01/01 05:08:38;;;;;;;119.50;44.30;;;;;;;;;;5014471;28;20455;-66
2022/01/01 05:11:05;;;;;;;125.38;48.13;;;;;;;;;;4996927;28;20179;-66
2022/01/01 05:13:31;;;;;;;140.85;50.83;;;;;;;;;;5014300;28;20069;-66
2022/01/01 05:15:57;;;;;;;;;;;;;;;;;;5013874;28;20057;-66
2022/01/01 05:18:23;;;;;;;127.93;53.10;;;;;;;;;;4996144;28;19921;-67
2022/01/01 05:20:50;;;;;;;153.25;54.95;;;;;;;;;;5013995;28;20054;-66
2022/01/01 05:23:16;;;;;;;141.73;54.65;;;;;;;;;;5013446;28;20064;-67
2022/01/01 05:25:42;;;;;;;145.25;59.75;;;;;;;;;;5014232;28;20437;-66
2022/01/01 05:28:08;;;;;;;;;;;;;;;;;;5014281;28;20201;-66
2022/01/01 05:30:34;;;;;;;173.02;67.00;;;;;;;;;;5013471;28;19922;-66
2022/01/01 05:33:01;;;;;;;169.13;66.80;;;;;;;;;;5013654;28;20085;-66
2022/01/01 05:35:28;;;;;;;169.40;69.55;;;;;;;;;;5012612;28;20104;-75
2022/01/01 05:37:54;;;;;;;167.50;71.05;;;;;;;;;;5012360;28;20050;-67
2022/01/01 05:40:20;;;;;;;170.85;68.47;;;;;;;;;;4996087;28;20088;-67
2022/01/01 05:42:46;;;;;;;172.15;71.65;;;;;;;;;;5013296;28;20085;-65
2022/01/01 05:45:12;;;;;;;149.75;64.22;;;;;;;;;;5013137;28;20045;-65
2022/01/01 05:47:38;;;;;;;158.18;64.20;;;;;;;;;;4995724;28;20056;-70
2022/01/01 05:50:05;;;;;;;166.20;65.13;;;;;;;;;;5012863;28;20050;-65
2022/01/01 05:52:31;;;;;;;173.82;69.63;;;;;;;;;;5013089;28;20145;-69
2022/01/01 05:54:57;;;;;;;161.68;64.90;;;;;;;;;;5012633;28;20045;-64
2022/01/01 05:57:23;;;;;;;160.73;61.35;;;;;;;;;;5013660;28;20482;-66
2022/01/01 05:59:49;;;;;;;149.75;57.97;;;;;;;;;;5012468;28;20072;-65
2022/01/01 06:02:15;;;;;;;137.30;55.33;;;;;;;;;;4995001;28;20050;-64
2022/01/01 06:04:41;;;;;;;130.70;48.80;;;;;;;;;;5012715;28;20054;-66
2022/01/01 06:07:10;;;;;;;122.68;43.50;;;;;;;;;;5012784;28;20467;-65
2022/01/01 06:09:36;;;;;;;119.18;41.33;;;;;;;;;;5012883;28;20057;-68
2022/01/01 06:12:03;;;;;;;135.55;45.60;;;;;;;;;;5013336;28;20049;-69
2022/01/01 06:14:29;;;;;;;136.05;45.75;;;;;;;;;;5012903;28;20157;-64
2022/01/01 06:16:55;;;;;;;145.38;45.50;;;;;;;;;;4994591;28;20438;-65
2022/01/01 06:19:21;;;;;;;142.30;45.95;;;;;;;;;;5011721;28;20054;-64
2022/01/01 06:21:47;;;;;;;148.82;44.88;;;;;;;;;;5012259;28;20049;-65
2022/01/01 06:24:13;;;;;;;161.43;46.60;;;;;;;;;;5011736;28;20157;-65
2022/01/01 06:26:39;;;;;;;150.23;43.65;;;;;;;;;;5012281;28;20057;-64
2022/01/01 06:29:05;;;;;;;170.00;42.58;;;;;;;;;;5012854;28;20497;-67
2022/01/01 06:31:31;;;;;;;176.65;44.70;;;;;;;;;;4995911;28;20049;-64
2022/01/01 06:33:59;;;;;;;151.25;43.75;;;;;;;;;;5013296;28;20103;-64
2022/01/01 06:36:25;;;;;;;154.05;44.10;;;;;;;;;;5013391;28;20050;-64
2022/01/01 06:38:51;;;;;;;150.07;41.45;;;;;;;;;;5012793;28;20041;-64
2022/01/01 06:41:18;;;;;;;155.95;40.72;;;;;;;;;;5014062;28;20064;-67
2022/01/01 06:43:44;;;;;;;149.70;40.85;;;;;;;;;;5013961;28;20124;-66
2022/01/01 06:46:10;;;;;;;131.73;38.72;;;;;;;;;;5013342;28;20519;-65
2022/01/01 06:48:36;;;;;;;125.85;38.70;;;;;;;;;;5013948;28;20050;-64
2022/01/01 06:51:02;;;;;;;131.45;36.95;;;;;;;;;;5013166;28;20178;-66
2022/01/01 06:53:28;;;;;;;134.15;38.10;;;;;;;;;;5012868;28;20512;-65
2022/01/01 06:55:59;;;;;;;130.98;39.17;;;;;;;;;;5013293;28;20054;-65
2022/01/01 06:58:26;;;;;;;134.73;38.17;;;;;;;;;;5012861;28;20498;-66
2022/01/01 07:00:52;;;;;;;128.40;36.28;;;;;;;;;;5012998;28;20104;-64
2022/01/01 07:03:25;;;;;;;122.95;35.83;;;;;;;;;;5013715;28;20046;-63
2022/01/01 07:05:51;;;;;;;125.20;36.70;;;;;;;;;;5013008;28;20125;-64
2022/01/01 07:08:17;;;;;;;130.57;35.90;;;;;;;;;;5013544;28;20046;-64
2022/01/01 07:10:44;;;;;;;131.10;36.58;;;;;;;;;;5012794;28;20473;-64
2022/01/01 07:13:14;;;;;;;129.98;35.80;;;;;;;;;;5012887;28;20220;-65
2022/01/01 07:15:40;;;;;;;114.97;35.67;;;;;;;;;;5016363;28;20049;-64
2022/01/01 07:18:06;;;;;;;122.82;35.42;;;;;;;;;;5016694;28;20068;-67
2022/01/01 07:20:32;;;;;;;116.18;35.45;;;;;;;;;;5016403;28;20184;-66
2022/01/01 07:22:58;;;;;;;115.30;33.60;;;;;;;;;;5016254;28;20057;-65
2022/01/01 07:25:24;;;;;;;118.15;32.35;;;;;;;;;;5016335;28;20508;-64
2022/01/01 07:27:51;;;;;;;108.72;31.98;;;;;;;;;;5016092;28;20132;-65
2022/01/01 07:30:17;;;;;;;95.55;30.80;;;;;;;;;;4999311;28;20188;-65
2022/01/01 07:32:45;;;;;;;102.97;31.58;;;;;;;;;;5016530;28;20041;-65
2022/01/01 07:35:11;;;;;;;119.60;33.88;;;;;;;;;;5016316;28;20045;-66
2022/01/01 07:37:37;;;;;;;118.13;35.15;;;;;;;;;;5016173;28;20139;-65
2022/01/01 07:40:08;;;;;;;114.32;36.65;;;;;;;;;;5016585;28;20042;-65
2022/01/01 07:42:34;;;;;;;108.38;35.30;;;;;;;;;;5016429;28;20156;-67
2022/01/01 07:45:01;;;;;;;125.90;36.53;;;;;;;;;;5016776;28;20379;-65
2022/01/01 07:47:27;;;;;;;118.28;35.95;;;;;;;;;;5016013;28;20057;-65
2022/01/01 07:49:53;;;;;;;125.20;36.58;;;;;;;;;;5016120;28;20382;-65
2022/01/01 07:52:19;;;;;;;116.55;35.90;;;;;;;;;;5015767;28;20053;-65
2022/01/01 07:54:45;;;;;;;125.43;36.70;;;;;;;;;;5015412;28;20060;-65
2022/01/01 07:57:11;;;;;;;126.68;36.55;;;;;;;;;;4998160;28;20472;-65
2022/01/01 07:59:37;;;;;;;109.80;36.42;;;;;;;;;;5015205;28;20057;-65
2022/01/01 08:02:03;;;;;;;116.90;35.78;;;;;;;;;;4998051;28;20054;-65
2022/01/01 08:04:29;;;;;;;122.75;36.83;;;;;;;;;;5014536;28;20107;-66
2022/01/01 08:06:55;;;;;;;115.28;35.85;;;;;;;;;;4996870;28;20435;-66
2022/01/01 08:09:21;;;;;;;122.05;38.08;;;;;;;;;;5013745;28;20049;-66
2022/01/01 08:11:49;;;;;;;116.50;37.17;;;;;;;;;;4996934;28;20081;-66
2022/01/01 08:14:16;;;;;;;114.57;37.55;;;;;;;;;;5013495;28;20089;-66
2022/01/01 08:16:57;;;;;;;134.68;39.30;;;;;;;;;;5013927;28;20099;-65
2022/01/01 08:19:23;;;;;;;122.85;39.38;;;;;;;;;;5013406;28;20083;-66
2022/01/01 08:21:49;;;;;;;127.93;40.35;;;;;;;;;;5013555;28;20135;-67
2022/01/01 08:24:15;;;;;;;122.28;42.85;;;;;;;;;;4996565;28;20425;-66
2022/01/01 08:26:41;;;;;;;133.60;42.10;;;;;;;;;;5013677;28;20057;-66
2022/01/01 08:29:07;;;;;;;140.75;41.28;;;;;;;;;;5013551;28;20042;-68
2022/01/01 08:31:33;;;;;;;140.23;44.72;;;;;;;;;;4995668;28;20053;-66
2022/01/01 08:33:59;;;;;;;130.88;43.70;;;;;;;;;;5013007;28;20099;-67
2022/01/01 08:36:25;;;;;;;148.55;43.13;;;;;;;;;;5013602;28;20056;-67
2022/01/01 08:38:51;;;;;;;155.30;44.28;;;;;;;;;;5013137;28;20144;-66
2022/01/01 08:41:18;;;;;;;143.38;46.05;;;;;;;;;;5012156;28;20104;-66
2022/01/01 08:43:44;;;;;;;131.43;45.03;;;;;;;;;;5012919;28;20112;-65
2022/01/01 08:46:10;;;;;;;145.95;44.15;;;;;;;;;;5012841;28;20133;-68
2022/01/01 08:48:36;;;;;;;133.00;43.83;;;;;;;;;;4995496;28;20108;-65
2022/01/01 08:51:18;;;;;;;137.48;45.22;;;;;;;;;;5012884;28;20049;-66
2022/01/01 08:53:46;;;;;;;125.05;43.10;;;;;;;;;;5013171;28;20042;-67
2022/01/01 08:56:12;;;;;;;136.60;44.83;;;;;;;;;;5012740;28;20076;-67
2022/01/01 08:58:39;;;;;;;118.40;43.28;;;;;;;;;;5012548;28;20497;-66
2022/01/01 09:01:05;;;;;;;130.50;42.90;;;;;;;;;;5012996;28;20122;-66
2022/01/01 09:03:31;;;;;;;;;;;;;;;;;;5013079;28;20045;-67
2022/01/01 09:05:57;;;;;;;116.30;43.22;;;;;;;;;;5012616;28;19921;-66
2022/01/01 09:08:23;;;;;;;117.10;42.80;;;;;;;;;;5012213;28;20414;-67
2022/01/01 09:10:50;;;;;;;109.22;40.75;;;;;;;;;;5013094;28;20111;-66
2022/01/01 09:13:16;;;;;;;103.53;40.45;;;;;;;;;;4995726;28;20054;-66
2022/01/01 09:15:42;;;;;;;102.35;38.17;;;;;;;;;;5011919;28;20478;-66
2022/01/01 09:18:08;;;;;;;91.25;38.60;;;;;;;;;;5012915;28;20053;-66
2022/01/01 09:20:34;;;;;;;110.43;38.15;;;;;;;;;;4994724;28;20085;-66
2022/01/01 09:23:00;;;;;;;85.68;37.75;;;;;;;;;;5012113;28;20046;-67
2022/01/01 09:25:26;;;;;;;90.18;39.90;;;;;;;;;;5011963;28;20057;-66
2022/01/01 09:27:52;;;;;;;94.30;37.30;;;;;;;;;;5012217;28;20128;-66
2022/01/01 09:30:20;;;;;;;93.55;39.15;;;;;;;;;;5011513;28;20046;-67
2022/01/01 09:32:46;;;;;;;91.97;38.63;;;;;;;;;;5011621;28;20050;-66
2022/01/01 09:35:14;;;;;;;97.13;39.97;;;;;;;;;;5011950;28;20064;-65
2022/01/01 09:37:40;;;;;;;89.00;38.63;;;;;;;;;;5011491;28;20050;-66
2022/01/01 09:40:06;;;;;;;92.63;37.08;;;;;;;;;;5011901;28;20046;-66
2022/01/01 09:42:32;;;;;;;;;;;;;;;;;;5012188;28;20042;-67
2022/01/01 09:44:58;;;;;;;89.68;35.47;;;;;;;;;;5011927;28;19921;-67
2022/01/01 09:47:25;;;;;;;79.22;35.80;;;;;;;;;;5011780;28;20046;-66
2022/01/01 09:49:51;;;;;;;69.57;34.35;;;;;;;;;;5011876;28;20053;-66
2022/01/01 09:52:17;;;;;;;82.60;35.53;;;;;;;;;;4994049;28;20045;-65
2022/01/01 09:54:44;;;;;;;74.00;33.88;;;;;;;;;;4993962;28;20406;-66
2022/01/01 09:57:10;;;;;;;66.72;31.17;;;;;;;;;;5011966;28;20057;-66
2022/01/01 09:59:36;;;;;;;;;;;;;;;;;;5011751;28;20128;-67
2022/01/01 10:02:03;;;;;;;63.15;28.48;;;;;;;;;;4993933;28;20021;-66
2022/01/01 10:04:39;;;;;;;58.25;28.20;;;;;;;;;;5011390;28;20054;-67
2022/01/01 10:07:06;;;;;;;61.20;27.65;;;;;;;;;;5011940;28;20042;-71
2022/01/01 10:09:32;;;;;;;;;;;;;;;;;;5012007;28;20431;-65
2022/01/01 10:11:58;;;;;;;57.60;25.20;;;;;;;;;;5011971;28;19989;-65
2022/01/01 10:14:24;;;;;;;;;;;;;;;;;;5011783;28;20038;-65
2022/01/01 10:16:50;;;;;;;50.53;24.00;;;;;;;;;;4993735;28;20385;-66
2022/01/01 10:19:18;;;;;;;56.45;24.23;;;;;;;;;;5011283;28;20046;-66
2022/01/01 10:21:50;;;;;;;48.08;23.02;;;;;;;;;;5011359;28;20038;-66
2022/01/01 10:24:24;;;;;;;49.70;22.33;;;;;;;;;;5011555;28;20056;-65
2022/01/01 10:29:35;;;;;;;45.08;20.85;;;;;;;;;;5012201;28;20136;-68
2022/01/01 10:32:03;;;;;;;42.13;18.83;;;;;;;;;;4994282;28;20058;-68
2022/01/01 10:34:29;;;;;;;44.13;20.38;;;;;;;;;;5011475;28;20181;-68
2022/01/01 10:36:55;;;;;;;38.08;18.77;;;;;;;;;;5011536;28;20104;-70
2022/01/01 10:39:22;;;;;;;42.20;19.70;;;;;;;;;;5011335;28;20050;-69
2022/01/01 10:41:49;;;;;;;45.40;19.90;;;;;;;;;;5011314;28;20049;-66
2022/01/01 10:44:16;;;;;;;43.17;19.60;;;;;;;;;;5011370;28;20164;-66
2022/01/01 10:46:42;;;;;;;45.50;21.23;;;;;;;;;;5011817;28;20054;-68
2022/01/01 10:52:15;;;;;;;43.08;19.10;;;;;;;;;;5015245;28;20116;-70
2022/01/01 10:54:48;;;;;;;43.63;20.08;;;;;;;;;;5014687;28;20053;-66
2022/01/01 10:57:14;;;;;;;44.20;18.13;;;;;;;;;;5015560;28;20066;-67
2022/01/01 10:59:40;;;;;;;40.38;18.67;;;;;;;;;;5015069;28;20115;-66
2022/01/01 11:02:07;;;;;;;40.65;18.17;;;;;;;;;;5014753;28;20093;-68
2022/01/01 11:04:34;;;;;;;42.67;18.77;;;;;;;;;;5014734;28;20080;-68
2022/01/01 11:07:01;;;;;;;39.97;18.45;;;;;;;;;;5014616;28;20045;-66
2022/01/01 11:09:28;;;;;;;39.40;18.02;;;;;;;;;;5014510;28;20410;-65
2022/01/01 11:12:02;;;;;;;42.30;18.42;;;;;;;;;;5014363;28;20052;-66
2022/01/01 11:14:28;;;;;;;38.45;16.67;;;;;;;;;;5014572;28;20497;-65
2022/01/01 11:16:54;;;;;;;39.42;16.73;;;;;;;;;;5014341;28;20103;-65
2022/01/01 11:19:24;;;;;;;38.58;16.10;;;;;;;;;;4996995;28;20050;-66
2022/01/01 11:21:50;;;;;;;39.55;16.42;;;;;;;;;;5014378;28;20038;-67
2022/01/01 11:24:19;;;;;;;40.05;17.38;;;;;;;;;;5014380;28;20129;-67
2022/01/01 11:26:45;;;;;;;;;;;;;;;;;;5014955;28;20053;-68
2022/01/01 11:29:14;;;;;;;37.75;17.05;;;;;;;;;;5014454;28;19921;-68
2022/01/01 11:31:40;;;;;;;41.00;16.50;;;;;;;;;;5014843;28;20068;-70
2022/01/01 11:34:07;;;;;;;37.85;16.67;;;;;;;;;;5014256;28;20115;-68
2022/01/01 11:36:34;;;;;;;34.67;15.80;;;;;;;;;;5014161;28;20051;-69
2022/01/01 11:39:04;;;;;;;33.72;15.60;;;;;;;;;;4996358;28;20100;-69
2022/01/01 11:41:43;;;;;;;36.90;16.67;;;;;;;;;;5013984;28;20081;-69
2022/01/01 11:44:28;;;;;;;38.58;15.65;;;;;;;;;;5014171;28;20050;-67
2022/01/01 11:47:01;;;;;;;42.95;16.42;;;;;;;;;;5014120;28;20046;-68
2022/01/01 11:49:28;;;;;;;36.20;15.05;;;;;;;;;;5013676;28;20042;-66
2022/01/01 11:51:55;;;;;;;41.13;15.60;;;;;;;;;;5013529;28;20501;-68
2022/01/01 11:54:34;;;;;;;32.90;13.63;;;;;;;;;;5014633;28;20429;-68
2022/01/01 11:57:02;;;;;;;34.33;13.98;;;;;;;;;;5014058;28;20466;-67
2022/01/01 11:59:28;;;;;;;32.28;14.02;;;;;;;;;;5013394;28;20133;-69
2022/01/01 12:01:57;;;;;;;26.88;11.65;;;;;;;;;;5013232;28;20371;-65
2022/01/01 12:04:24;;;;;;;31.38;12.60;;;;;;;;;;4996672;28;20054;-66
2022/01/01 12:07:09;;;;;;;25.80;11.98;;;;;;;;;;5013718;28;20104;-64
2022/01/01 12:09:47;;;;;;;27.10;12.32;;;;;;;;;;5013540;28;20174;-65
2022/01/01 12:12:14;;;;;;;40.35;14.05;;;;;;;;;;5014290;28;20127;-64
2022/01/01 12:14:59;;;;;;;31.73;15.27;;;;;;;;;;5013352;28;20041;-65
2022/01/01 12:17:25;;;;;;;30.70;13.25;;;;;;;;;;5013572;28;20045;-66
2022/01/01 12:19:54;;;;;;;26.90;11.35;;;;;;;;;;4995989;28;20052;-66
2022/01/01 12:22:24;;;;;;;28.80;11.63;;;;;;;;;;5013996;28;20042;-67
2022/01/01 12:24:52;;;;;;;27.13;10.23;;;;;;;;;;5013795;28;20048;-65
2022/01/01 12:27:19;;;;;;;27.52;10.63;;;;;;;;;;4996016;28;20052;-65
2022/01/01 12:29:45;;;;;;;33.75;11.20;;;;;;;;;;5013384;28;20092;-64
2022/01/01 12:32:11;;;;;;;22.02;10.88;;;;;;;;;;5013246;28;20076;-64
2022/01/01 12:34:37;;;;;;;25.85;10.75;;;;;;;;;;5013369;28;20108;-65
2022/01/01 12:37:05;;;;;;;23.40;10.38;;;;;;;;;;5013195;28;20056;-64
2022/01/01 12:39:51;;;;;;;27.98;10.88;;;;;;;;;;5013152;28;20136;-66
2022/01/01 12:42:32;;;;;;;25.70;10.70;;;;;;;;;;5012829;28;20053;-65
2022/01/01 12:44:59;;;;;;;31.42;10.93;;;;;;;;;;5013241;28;20132;-64
2022/01/01 12:47:27;;;;;;;26.20;11.00;;;;;;;;;;5012880;28;20478;-64
2022/01/01 12:49:53;;;;;;;25.00;10.18;;;;;;;;;;5013063;28;20504;-65
2022/01/01 12:52:23;;;;;;;23.35;9.60;;;;;;;;;;5013254;28;20099;-65
2022/01/01 12:54:49;;;;;;;21.67;8.77;;;;;;;;;;5012759;28;20057;-64
2022/01/01 12:57:15;;;;;;;;;;;;;;;;;;5013128;28;20093;-66
2022/01/01 12:59:42;;;;;;;24.48;9.63;;;;;;;;;;5012791;28;20275;-66
2022/01/01 13:02:09;;;;;;;27.63;9.60;;;;;;;;;;5012933;28;20180;-64
2022/01/01 13:04:35;;;;;;;22.17;9.30;;;;;;;;;;5012187;28;20487;-65
2022/01/01 13:07:02;;;;;;;26.13;9.95;;;;;;;;;;5012285;28;20429;-65
2022/01/01 13:09:29;;;;;;;22.90;9.20;;;;;;;;;;5012579;28;20497;-65
2022/01/01 13:12:02;;;;;;;22.42;8.93;;;;;;;;;;5012452;28;20102;-68
2022/01/01 13:14:30;;;;;;;23.02;8.85;;;;;;;;;;5012155;28;20552;-65
2022/01/01 13:16:56;;;;;;;28.55;9.68;;;;;;;;;;5012257;28;20046;-66
2022/01/01 13:19:24;;;;;;;23.35;8.70;;;;;;;;;;4994878;28;20564;-65
2022/01/01 13:21:51;;;;;;;23.30;9.07;;;;;;;;;;5012318;28;20100;-65
2022/01/01 13:24:17;;;;;;;19.30;9.38;;;;;;;;;;5012383;28;20073;-66
2022/01/01 13:26:44;;;;;;;20.92;8.77;;;;;;;;;;5012025;28;20049;-66
2022/01/01 13:29:10;;;;;;;23.42;9.00;;;;;;;;;;4995612;28;20454;-65
2022/01/01 13:31:36;;;;;;;21.92;8.15;;;;;;;;;;5011693;28;20479;-65
2022/01/01 13:34:03;;;;;;;23.42;8.90;;;;;;;;;;5012225;28;20042;-65
2022/01/01 13:36:33;;;;;;;26.83;9.30;;;;;;;;;;5012090;28;20046;-66
2022/01/01 13:39:00;;;;;;;22.27;9.30;;;;;;;;;;5011897;28;20061;-65
2022/01/01 13:41:41;;;;;;;24.17;9.25;;;;;;;;;;5012341;28;20049;-67
2022/01/01 13:44:17;;;;;;;28.25;9.60;;;;;;;;;;5012014;28;20073;-65
2022/01/01 13:46:43;;;;;;;22.13;9.35;;;;;;;;;;5011925;28;20133;-66
2022/01/01 13:49:12;;;;;;;25.42;9.85;;;;;;;;;;5012004;28;20049;-65
2022/01/01 13:51:38;;;;;;;25.65;10.15;;;;;;;;;;5011845;28;20046;-65
2022/01/01 13:54:09;;;;;;;23.67;9.27;;;;;;;;;;5012225;28;20049;-64
2022/01/01 13:56:36;;;;;;;20.70;10.02;;;;;;;;;;5011547;28;20073;-65
2022/01/01 13:59:04;;;;;;;22.13;9.13;;;;;;;;;;5012525;28;20093;-65
2022/01/01 14:01:30;;;;;;;18.60;8.85;;;;;;;;;;5011988;28;20099;-65
2022/01/01 14:03:57;;;;;;;22.60;9.77;;;;;;;;;;5011456;28;20052;-66
2022/01/01 14:06:24;;;;;;;27.15;9.40;;;;;;;;;;5011919;28;20053;-65
2022/01/01 14:09:04;;;;;;;22.08;9.88;;;;;;;;;;4993792;28;20041;-65
2022/01/01 14:11:31;;;;;;;20.73;9.15;;;;;;;;;;5011648;28;20042;-64
2022/01/01 14:14:08;;;;;;;22.73;9.70;;;;;;;;;;5012166;28;20077;-66
2022/01/01 14:16:47;;;;;;;22.42;9.23;;;;;;;;;;5011098;28;20442;-66
2022/01/01 14:19:15;;;;;;;24.67;9.52;;;;;;;;;;5011415;28;20057;-65
2022/01/01 14:21:42;;;;;;;24.05;9.48;;;;;;;;;;5011532;28;20042;-64
2022/01/01 14:24:08;;;;;;;;;;;;;;;;;;5014843;28;20050;-65
2022/01/01 14:26:44;;;;;;;23.08;10.05;;;;;;;;;;5015814;28;19944;-65
2022/01/01 14:29:10;;;;;;;24.17;10.60;;;;;;;;;;4997646;28;20049;-65